Nearby METAR Reports

 

KPRB - Paso Robles, California, USA
Distance from station: SW 1mi, 1km
Updated: 08/21/2014 6:53am
Clear
Clear
 Wind from calm
Wind: Calm
Temperature: 54°F , 12°C
Dew Point: 48°F , 9°C
Humidity: 82%
Barometer: 29.96 inHg , 1014.6 hPa
Clouds: Clear
Visibility: 10 miles , 16 km
2014/08/21 13:53 KPRB 211353Z AUTO 00000KT 10SM CLR 12/09 A2996 RMK AO2 SLP140 T01170089
KSBP - San Luis Obispo, California, USA
Distance from station: S 30mi, 49km
Updated: 08/21/2014 6:56am
Mostly cloudy
Mostly cloudy
 Wind from NW
Wind: NW 3 mph , 6 km/h
Temperature: 55°F , 13°C
Dew Point: 55°F , 13°C
Humidity: 100%
Barometer: 29.95 inHg , 1014.2 hPa
Clouds: Mostly cloudy
Visibility: 10 miles , 16 km
Cloud details: Mostly cloudy 400 ft
2014/08/21 13:56 KSBP 211356Z 31003KT 10SM BKN004 13/13 A2995 RMK AO2 SLP140 T01330128 $
 
KSMX - Santa Maria, California, USA
Distance from station: S 54mi, 87km
Updated: 08/21/2014 6:51am
Clear
Clear
 Wind from calm
Wind: Calm
Temperature: 57°F , 14°C
Dew Point: 54°F , 12°C
Humidity: 88%
Barometer: 29.95 inHg , 1014.2 hPa
Clouds: Clear
Visibility: 10 miles , 16 km
2014/08/21 13:51 KSMX 211351Z 00000KT 10SM CLR 14/12 A2995 RMK AO2 SLP144 T01440117 $
KNLC - Lemoore Nas/Reev, California, USA
Distance from station: NE 58mi, 94km
Updated: 08/21/2014 6:56am
Clear
Clear
 Wind from WNW
Wind: WNW 5 mph , 7 km/h
Temperature: 63°F , 17°C
Dew Point: 52°F , 11°C
Humidity: 68%
Barometer: 29.92 inHg , 1013.2 hPa
Clouds: Clear
Visibility: 9 miles , 14 km
2014/08/21 13:56 KNLC 211356Z 30004KT 9SM CLR 17/11 A2992 RMK AO2 SLP130 T01720106
 
KVBG - Vandenberg Afb, California, USA
Distance from station: S 65mi, 105km
Updated: 08/21/2014 6:55am
Few Clouds
Few Clouds
 Wind from calm
Wind: Calm
Temperature: 55°F , 13°C
Dew Point: 52°F , 11°C
Humidity: 88%
Barometer: 29.96 inHg , 1014.6 hPa
Clouds: Few Clouds
Visibility: 10 miles , 16 km
Cloud details: Few Clouds 700 ft
2014/08/21 13:55 KVBG 211355Z 00000KT 10SM FEW007 13/11 A2996 RMK AO2 SLP137 T01280106
KLPC - Lompoc, California, USA
Distance from station: S 70mi, 113km
Updated: 08/21/2014 6:55am
Clear
Clear
 Wind from calm
Wind: Calm
Temperature: 54°F , 12°C
Dew Point: 48°F , 9°C
Humidity: 82%
Barometer: 29.96 inHg , 1014.6 hPa
Clouds: Clear
Visibility: 10 miles , 16 km
2014/08/21 13:55 KLPC 211355Z AUTO 00000KT 10SM CLR 12/09 A2996 RMK AO1
 
KHJO - Hanford, California, USA
Distance from station: NE 72mi, 116km
Updated: 08/21/2014 6:53am
Clear
Clear
 Wind from NW
Wind: NW 5 mph , 7 km/h
Temperature: 64°F , 18°C
Dew Point: 55°F , 13°C
Humidity: 73%
Barometer: 29.92 inHg , 1013.2 hPa
Clouds: Clear
Visibility: 10 miles , 16 km
2014/08/21 13:53 KHJO 211353Z AUTO 31004KT 10SM CLR 18/13 A2992 RMK AO2 SLP130 T01780128